ニース/コート・ダジュール の空港の天気 - METARとTAF

コート・ダジュール空港(ニース) ( LFMN / NCE ) - フランス ニース
飛行場実況気象(Metar)
観測時間08/18 15:00 CEST (08/18 13:00 UTC)
風向・風速東南東 8m/s
視程10km以上
天気現象
全天の4割程度の雲 雲底高度 610m
少しの雲 雲底高度 700m
気温26℃
湿度70%
気圧1009hPa
METARLFMN 181300Z 12015KT 9999 SCT020 FEW023TCU 26/20 Q1009 NOSIG
過去の天気等 Google飛行場航空写真 Wunderground天気予報

過去48時間のMETAR

飛行場予報(TAF)
発表時間: 8/18 10:38 CEST (8/18 08:38 UTC)
予報対象時間: 18日11時 CEST ~ 19日17時 CEST
風向・風速南 5m/s
視程10km以上
全天の4割程度の雲 雲底高度 760m
18日11時 CEST ~ 18日12時 CEST に一時的に
風向・風速東 8m/s 瞬間風速 13m/s
18日11時 CEST ~ 18日15時 CEST に 確率 30% で一時的に
風向・風速不定 5m/s
視程4000m
天気現象雷雨
全天の4割程度の積乱雲 雲底高度 610m
18日15時 CEST ~ 19日4時 CEST に 確率 40% で一時的に
風向・風速不定 8m/s 瞬間風速 15m/s
視程3000m
天気現象雷雨
全天の4割程度の積乱雲 雲底高度 610m
18日19時 CEST ~ 18日21時 CEST に徐々に
風向・風速不定 2m/s
18日21時 CEST ~ 18日23時 CEST に徐々に
風向・風速北 5m/s
19日10時 CEST ~ 19日12時 CEST に徐々に
風向・風速南 5m/s
視程10km以上
なし
TAF AMD LFMN 180838Z 1809/1915 17010KT 9999 SCT025
TEMPO 1809/1810 09015G25KT
PROB30 TEMPO 1809/1813 VRB10KT 4000 TSRA SCT020CB
PROB40 TEMPO 1813/1902 VRB15G30KT 3000 TSRA SCT020CB
BECMG 1817/1819 VRB03KT
BECMG 1819/1821 36010KT
BECMG 1908/1910 18010KT CAVOK